sensor_id;sensor_type;location;lat;lon;timestamp;pressure;altitude;pressure_sealevel;temperature;humidity
52935;BME280;38802;50.198;19.796;2024-03-02T00:00:51;95589.98;;;6.05;100.00
52935;BME280;38802;50.198;19.796;2024-03-02T00:03:42;95593.52;;;6.04;100.00
52935;BME280;38802;50.198;19.796;2024-03-02T00:06:11;95590.51;;;6.03;100.00
52935;BME280;38802;50.198;19.796;2024-03-02T00:08:40;95590.59;;;6.02;100.00
52935;BME280;38802;50.198;19.796;2024-03-02T00:11:08;95591.49;;;6.01;100.00
52935;BME280;38802;50.198;19.796;2024-03-02T00:13:36;95588.79;;;6.00;100.00
52935;BME280;38802;50.198;19.796;2024-03-02T00:16:05;95590.43;;;5.99;100.00
52935;BME280;38802;50.198;19.796;2024-03-02T00:18:35;95589.09;;;6.01;100.00
52935;BME280;38802;50.198;19.796;2024-03-02T00:21:06;95589.95;;;6.03;100.00
52935;BME280;38802;50.198;19.796;2024-03-02T00:23:37;95593.96;;;6.05;100.00
52935;BME280;38802;50.198;19.796;2024-03-02T00:26:06;95597.63;;;6.07;100.00
52935;BME280;38802;50.198;19.796;2024-03-02T00:28:36;95596.89;;;6.10;100.00
52935;BME280;38802;50.198;19.796;2024-03-02T00:33:44;95604.48;;;6.14;100.00
52935;BME280;38802;50.198;19.796;2024-03-02T00:36:22;95597.21;;;6.15;100.00
52935;BME280;38802;50.198;19.796;2024-03-02T00:38:52;95600.23;;;6.14;100.00
52935;BME280;38802;50.198;19.796;2024-03-02T00:41:22;95597.95;;;6.16;100.00
52935;BME280;38802;50.198;19.796;2024-03-02T00:43:58;95595.69;;;6.19;100.00
52935;BME280;38802;50.198;19.796;2024-03-02T00:46:33;95598.74;;;6.22;100.00
52935;BME280;38802;50.198;19.796;2024-03-02T00:49:17;95598.09;;;6.23;100.00
52935;BME280;38802;50.198;19.796;2024-03-02T00:51:51;95595.39;;;6.25;100.00
52935;BME280;38802;50.198;19.796;2024-03-02T00:54:21;95595.23;;;6.25;100.00
52935;BME280;38802;50.198;19.796;2024-03-02T00:56:52;95593.44;;;6.26;100.00
52935;BME280;38802;50.198;19.796;2024-03-02T00:59:25;95587.56;;;6.28;100.00
52935;BME280;38802;50.198;19.796;2024-03-02T01:01:53;95583.70;;;6.29;100.00
52935;BME280;38802;50.198;19.796;2024-03-02T01:04:21;95582.04;;;6.30;100.00
52935;BME280;38802;50.198;19.796;2024-03-02T01:06:50;95578.23;;;6.33;100.00
52935;BME280;38802;50.198;19.796;2024-03-02T01:09:18;95574.09;;;6.35;100.00
52935;BME280;38802;50.198;19.796;2024-03-02T01:11:47;95573.24;;;6.37;100.00
52935;BME280;38802;50.198;19.796;2024-03-02T01:14:15;95571.40;;;6.36;100.00
52935;BME280;38802;50.198;19.796;2024-03-02T01:16:43;95570.09;;;6.36;100.00
52935;BME280;38802;50.198;19.796;2024-03-02T01:19:11;95567.65;;;6.36;100.00
52935;BME280;38802;50.198;19.796;2024-03-02T01:21:39;95570.34;;;6.34;100.00
52935;BME280;38802;50.198;19.796;2024-03-02T01:24:08;95567.27;;;6.34;100.00
52935;BME280;38802;50.198;19.796;2024-03-02T01:26:36;95568.81;;;6.34;100.00
52935;BME280;38802;50.198;19.796;2024-03-02T01:29:04;95568.75;;;6.33;100.00
52935;BME280;38802;50.198;19.796;2024-03-02T01:31:32;95571.14;;;6.28;100.00
52935;BME280;38802;50.198;19.796;2024-03-02T01:34:00;95571.54;;;6.23;100.00
52935;BME280;38802;50.198;19.796;2024-03-02T01:36:28;95566.48;;;6.20;100.00
52935;BME280;38802;50.198;19.796;2024-03-02T01:38:56;95566.73;;;6.16;100.00
52935;BME280;38802;50.198;19.796;2024-03-02T01:41:24;95561.25;;;6.11;100.00
52935;BME280;38802;50.198;19.796;2024-03-02T01:43:52;95560.09;;;6.11;100.00
52935;BME280;38802;50.198;19.796;2024-03-02T01:46:31;95557.41;;;6.10;100.00
52935;BME280;38802;50.198;19.796;2024-03-02T01:49:14;95549.25;;;6.10;100.00
52935;BME280;38802;50.198;19.796;2024-03-02T01:51:42;95542.23;;;6.14;100.00
52935;BME280;38802;50.198;19.796;2024-03-02T01:54:10;95535.36;;;6.16;100.00
52935;BME280;38802;50.198;19.796;2024-03-02T01:56:39;95530.27;;;6.19;100.00
52935;BME280;38802;50.198;19.796;2024-03-02T01:59:07;95531.04;;;6.23;100.00
52935;BME280;38802;50.198;19.796;2024-03-02T02:01:35;95530.61;;;6.26;100.00
52935;BME280;38802;50.198;19.796;2024-03-02T02:04:03;95527.34;;;6.28;100.00
52935;BME280;38802;50.198;19.796;2024-03-02T02:06:32;95530.98;;;6.28;100.00
52935;BME280;38802;50.198;19.796;2024-03-02T02:09:00;95530.13;;;6.26;100.00
52935;BME280;38802;50.198;19.796;2024-03-02T02:11:28;95528.87;;;6.24;100.00
52935;BME280;38802;50.198;19.796;2024-03-02T02:13:56;95534.63;;;6.21;100.00
52935;BME280;38802;50.198;19.796;2024-03-02T02:16:24;95530.73;;;6.20;100.00
52935;BME280;38802;50.198;19.796;2024-03-02T02:18:52;95530.88;;;6.18;100.00
52935;BME280;38802;50.198;19.796;2024-03-02T02:21:24;95527.48;;;6.18;100.00
52935;BME280;38802;50.198;19.796;2024-03-02T02:23:52;95527.23;;;6.16;100.00
52935;BME280;38802;50.198;19.796;2024-03-02T02:26:20;95526.59;;;6.16;100.00
52935;BME280;38802;50.198;19.796;2024-03-02T02:28:48;95526.73;;;6.14;100.00
52935;BME280;38802;50.198;19.796;2024-03-02T02:31:16;95527.85;;;6.08;100.00
52935;BME280;38802;50.198;19.796;2024-03-02T02:33:44;95523.92;;;6.05;100.00
52935;BME280;38802;50.198;19.796;2024-03-02T02:36:12;95526.31;;;6.06;100.00
52935;BME280;38802;50.198;19.796;2024-03-02T02:38:45;95525.07;;;6.04;100.00
52935;BME280;38802;50.198;19.796;2024-03-02T02:41:14;95528.92;;;6.00;100.00
52935;BME280;38802;50.198;19.796;2024-03-02T02:43:42;95526.71;;;5.98;100.00
52935;BME280;38802;50.198;19.796;2024-03-02T02:46:10;95527.81;;;5.94;100.00
52935;BME280;38802;50.198;19.796;2024-03-02T02:48:38;95528.33;;;5.94;100.00
52935;BME280;38802;50.198;19.796;2024-03-02T02:51:07;95526.78;;;5.95;100.00
52935;BME280;38802;50.198;19.796;2024-03-02T02:53:35;95529.81;;;5.93;100.00
52935;BME280;38802;50.198;19.796;2024-03-02T02:56:03;95529.10;;;5.89;100.00
52935;BME280;38802;50.198;19.796;2024-03-02T02:58:31;95530.23;;;5.85;100.00
52935;BME280;38802;50.198;19.796;2024-03-02T03:00:59;95533.33;;;5.83;100.00
52935;BME280;38802;50.198;19.796;2024-03-02T03:03:28;95526.86;;;5.82;100.00
52935;BME280;38802;50.198;19.796;2024-03-02T03:05:56;95523.05;;;5.80;100.00
52935;BME280;38802;50.198;19.796;2024-03-02T03:08:24;95519.80;;;5.77;100.00
52935;BME280;38802;50.198;19.796;2024-03-02T03:10:52;95517.15;;;5.74;100.00
52935;BME280;38802;50.198;19.796;2024-03-02T03:13:20;95515.77;;;5.72;100.00
52935;BME280;38802;50.198;19.796;2024-03-02T03:15:48;95518.65;;;5.74;100.00
52935;BME280;38802;50.198;19.796;2024-03-02T03:18:16;95519.11;;;5.73;100.00
52935;BME280;38802;50.198;19.796;2024-03-02T03:20:45;95516.59;;;5.72;100.00
52935;BME280;38802;50.198;19.796;2024-03-02T03:23:13;95518.79;;;5.70;100.00
52935;BME280;38802;50.198;19.796;2024-03-02T03:25:44;95515.39;;;5.65;100.00
52935;BME280;38802;50.198;19.796;2024-03-02T03:28:12;95514.88;;;5.60;100.00
52935;BME280;38802;50.198;19.796;2024-03-02T03:30:40;95516.12;;;5.57;100.00
52935;BME280;38802;50.198;19.796;2024-03-02T03:33:08;95519.82;;;5.53;100.00
52935;BME280;38802;50.198;19.796;2024-03-02T03:35:36;95522.67;;;5.50;100.00
52935;BME280;38802;50.198;19.796;2024-03-02T03:38:04;95518.37;;;5.48;100.00
52935;BME280;38802;50.198;19.796;2024-03-02T03:40:33;95515.92;;;5.48;100.00
52935;BME280;38802;50.198;19.796;2024-03-02T03:43:00;95510.20;;;5.46;100.00
52935;BME280;38802;50.198;19.796;2024-03-02T03:45:29;95512.93;;;5.44;100.00
52935;BME280;38802;50.198;19.796;2024-03-02T03:47:58;95508.96;;;5.42;100.00
52935;BME280;38802;50.198;19.796;2024-03-02T03:50:26;95511.20;;;5.37;100.00
52935;BME280;38802;50.198;19.796;2024-03-02T03:52:54;95511.23;;;5.34;100.00
52935;BME280;38802;50.198;19.796;2024-03-02T03:55:22;95507.40;;;5.32;100.00
52935;BME280;38802;50.198;19.796;2024-03-02T03:57:50;95508.84;;;5.32;100.00
52935;BME280;38802;50.198;19.796;2024-03-02T04:00:18;95511.98;;;5.29;100.00
52935;BME280;38802;50.198;19.796;2024-03-02T04:02:47;95511.87;;;5.28;100.00
52935;BME280;38802;50.198;19.796;2024-03-02T04:05:15;95510.27;;;5.27;100.00
52935;BME280;38802;50.198;19.796;2024-03-02T04:07:43;95511.17;;;5.24;100.00
52935;BME280;38802;50.198;19.796;2024-03-02T04:10:11;95511.97;;;5.22;100.00
52935;BME280;38802;50.198;19.796;2024-03-02T04:12:40;95508.55;;;5.22;100.00
52935;BME280;38802;50.198;19.796;2024-03-02T04:15:08;95510.48;;;5.21;100.00
52935;BME280;38802;50.198;19.796;2024-03-02T04:17:36;95505.46;;;5.22;100.00
52935;BME280;38802;50.198;19.796;2024-03-02T04:20:05;95512.89;;;5.21;100.00
52935;BME280;38802;50.198;19.796;2024-03-02T04:22:33;95513.38;;;5.22;100.00
52935;BME280;38802;50.198;19.796;2024-03-02T04:25:03;95505.83;;;5.24;100.00
52935;BME280;38802;50.198;19.796;2024-03-02T04:27:32;95508.26;;;5.28;100.00
52935;BME280;38802;50.198;19.796;2024-03-02T04:30:02;95501.23;;;5.34;100.00
52935;BME280;38802;50.198;19.796;2024-03-02T04:32:30;95500.46;;;5.38;100.00
52935;BME280;38802;50.198;19.796;2024-03-02T04:34:59;95500.23;;;5.42;100.00
52935;BME280;38802;50.198;19.796;2024-03-02T04:37:27;95507.27;;;5.44;100.00
52935;BME280;38802;50.198;19.796;2024-03-02T04:39:55;95510.56;;;5.46;100.00
52935;BME280;38802;50.198;19.796;2024-03-02T04:42:23;95510.33;;;5.45;100.00
52935;BME280;38802;50.198;19.796;2024-03-02T04:44:52;95514.63;;;5.45;100.00
52935;BME280;38802;50.198;19.796;2024-03-02T04:47:20;95515.09;;;5.43;100.00
52935;BME280;38802;50.198;19.796;2024-03-02T04:49:48;95515.41;;;5.41;100.00
52935;BME280;38802;50.198;19.796;2024-03-02T04:52:16;95515.53;;;5.40;100.00
52935;BME280;38802;50.198;19.796;2024-03-02T04:54:45;95515.63;;;5.38;100.00
52935;BME280;38802;50.198;19.796;2024-03-02T04:57:31;95522.04;;;5.38;100.00
52935;BME280;38802;50.198;19.796;2024-03-02T04:59:59;95517.09;;;5.37;100.00
52935;BME280;38802;50.198;19.796;2024-03-02T05:02:28;95513.63;;;5.34;100.00
52935;BME280;38802;50.198;19.796;2024-03-02T05:04:56;95510.73;;;5.30;100.00
52935;BME280;38802;50.198;19.796;2024-03-02T05:07:24;95510.91;;;5.27;100.00
52935;BME280;38802;50.198;19.796;2024-03-02T05:09:52;95510.34;;;5.26;100.00
52935;BME280;38802;50.198;19.796;2024-03-02T05:12:20;95512.42;;;5.25;100.00
52935;BME280;38802;50.198;19.796;2024-03-02T05:15:17;95521.64;;;5.26;100.00
52935;BME280;38802;50.198;19.796;2024-03-02T05:17:45;95521.20;;;5.28;100.00
52935;BME280;38802;50.198;19.796;2024-03-02T05:20:14;95519.77;;;5.30;100.00
52935;BME280;38802;50.198;19.796;2024-03-02T05:22:42;95517.52;;;5.36;100.00
52935;BME280;38802;50.198;19.796;2024-03-02T05:25:10;95521.21;;;5.42;100.00
52935;BME280;38802;50.198;19.796;2024-03-02T05:27:38;95528.35;;;5.38;100.00
52935;BME280;38802;50.198;19.796;2024-03-02T05:30:07;95527.84;;;5.33;100.00
52935;BME280;38802;50.198;19.796;2024-03-02T05:32:35;95530.36;;;5.29;100.00
52935;BME280;38802;50.198;19.796;2024-03-02T05:35:04;95533.19;;;5.21;100.00
52935;BME280;38802;50.198;19.796;2024-03-02T05:37:33;95539.91;;;5.14;100.00
52935;BME280;38802;50.198;19.796;2024-03-02T05:40:02;95544.12;;;5.08;100.00
52935;BME280;38802;50.198;19.796;2024-03-02T05:42:30;95546.70;;;5.03;100.00
52935;BME280;38802;50.198;19.796;2024-03-02T05:44:58;95550.72;;;5.00;100.00
52935;BME280;38802;50.198;19.796;2024-03-02T05:47:26;95556.09;;;5.00;100.00
52935;BME280;38802;50.198;19.796;2024-03-02T05:49:56;95561.02;;;5.00;100.00
52935;BME280;38802;50.198;19.796;2024-03-02T05:52:24;95560.33;;;5.01;100.00
52935;BME280;38802;50.198;19.796;2024-03-02T05:54:52;95560.55;;;5.05;100.00
52935;BME280;38802;50.198;19.796;2024-03-02T05:57:20;95561.08;;;5.09;100.00
52935;BME280;38802;50.198;19.796;2024-03-02T06:00:00;95561.06;;;5.12;100.00
52935;BME280;38802;50.198;19.796;2024-03-02T06:02:28;95566.04;;;5.20;100.00
52935;BME280;38802;50.198;19.796;2024-03-02T06:04:56;95571.79;;;5.28;100.00
52935;BME280;38802;50.198;19.796;2024-03-02T06:07:24;95566.77;;;5.38;100.00
52935;BME280;38802;50.198;19.796;2024-03-02T06:09:52;95559.36;;;5.41;100.00
52935;BME280;38802;50.198;19.796;2024-03-02T06:12:20;95551.83;;;5.35;100.00
52935;BME280;38802;50.198;19.796;2024-03-02T06:14:48;95553.75;;;5.35;100.00
52935;BME280;38802;50.198;19.796;2024-03-02T06:17:16;95554.63;;;5.37;100.00
52935;BME280;38802;50.198;19.796;2024-03-02T06:19:44;95559.87;;;5.39;100.00
52935;BME280;38802;50.198;19.796;2024-03-02T06:22:12;95560.86;;;5.34;100.00
52935;BME280;38802;50.198;19.796;2024-03-02T06:24:40;95561.58;;;5.29;100.00
52935;BME280;38802;50.198;19.796;2024-03-02T06:27:08;95562.61;;;5.24;100.00
52935;BME280;38802;50.198;19.796;2024-03-02T06:29:36;95565.92;;;5.21;100.00
52935;BME280;38802;50.198;19.796;2024-03-02T06:32:05;95563.65;;;5.19;100.00
52935;BME280;38802;50.198;19.796;2024-03-02T06:34:33;95568.55;;;5.18;100.00
52935;BME280;38802;50.198;19.796;2024-03-02T06:37:01;95566.67;;;5.18;100.00
52935;BME280;38802;50.198;19.796;2024-03-02T06:39:30;95569.20;;;5.19;100.00
52935;BME280;38802;50.198;19.796;2024-03-02T06:41:59;95573.40;;;5.23;100.00
52935;BME280;38802;50.198;19.796;2024-03-02T06:44:27;95571.39;;;5.29;100.00
52935;BME280;38802;50.198;19.796;2024-03-02T06:46:56;95574.06;;;5.33;100.00
52935;BME280;38802;50.198;19.796;2024-03-02T06:49:24;95578.23;;;5.37;100.00
52935;BME280;38802;50.198;19.796;2024-03-02T06:51:52;95578.75;;;5.42;100.00
52935;BME280;38802;50.198;19.796;2024-03-02T06:54:20;95581.37;;;5.46;100.00
52935;BME280;38802;50.198;19.796;2024-03-02T06:56:48;95578.56;;;5.49;100.00
52935;BME280;38802;50.198;19.796;2024-03-02T06:59:16;95576.14;;;5.54;100.00
52935;BME280;38802;50.198;19.796;2024-03-02T07:01:44;95578.15;;;5.59;100.00
52935;BME280;38802;50.198;19.796;2024-03-02T07:04:12;95578.54;;;5.63;100.00
52935;BME280;38802;50.198;19.796;2024-03-02T07:06:40;95574.89;;;5.66;100.00
52935;BME280;38802;50.198;19.796;2024-03-02T07:09:08;95575.84;;;5.70;100.00
52935;BME280;38802;50.198;19.796;2024-03-02T07:11:38;95577.41;;;5.70;100.00
52935;BME280;38802;50.198;19.796;2024-03-02T07:14:06;95572.73;;;5.72;100.00
52935;BME280;38802;50.198;19.796;2024-03-02T07:16:37;95578.67;;;5.83;100.00
52935;BME280;38802;50.198;19.796;2024-03-02T07:19:06;95578.73;;;5.89;100.00
52935;BME280;38802;50.198;19.796;2024-03-02T07:21:35;95579.79;;;5.91;100.00
52935;BME280;38802;50.198;19.796;2024-03-02T07:24:03;95585.75;;;5.87;100.00
52935;BME280;38802;50.198;19.796;2024-03-02T07:26:32;95585.45;;;5.84;100.00
52935;BME280;38802;50.198;19.796;2024-03-02T07:29:03;95577.27;;;5.85;100.00
52935;BME280;38802;50.198;19.796;2024-03-02T07:31:31;95578.20;;;5.87;100.00
52935;BME280;38802;50.198;19.796;2024-03-02T07:33:59;95584.32;;;5.90;100.00
52935;BME280;38802;50.198;19.796;2024-03-02T07:36:27;95586.91;;;5.93;100.00
52935;BME280;38802;50.198;19.796;2024-03-02T07:38:55;95586.07;;;5.95;100.00
52935;BME280;38802;50.198;19.796;2024-03-02T07:41:24;95592.89;;;5.98;100.00
52935;BME280;38802;50.198;19.796;2024-03-02T07:43:52;95587.90;;;6.03;100.00
52935;BME280;38802;50.198;19.796;2024-03-02T07:46:20;95586.41;;;6.16;100.00
52935;BME280;38802;50.198;19.796;2024-03-02T07:48:49;95591.54;;;6.28;100.00
52935;BME280;38802;50.198;19.796;2024-03-02T07:51:19;95594.25;;;6.36;100.00
52935;BME280;38802;50.198;19.796;2024-03-02T07:53:48;95601.42;;;6.36;100.00
52935;BME280;38802;50.198;19.796;2024-03-02T07:56:16;95602.34;;;6.36;100.00
52935;BME280;38802;50.198;19.796;2024-03-02T07:58:50;95600.72;;;6.39;100.00
52935;BME280;38802;50.198;19.796;2024-03-02T08:01:18;95595.70;;;6.48;100.00
52935;BME280;38802;50.198;19.796;2024-03-02T08:03:46;95591.39;;;6.59;100.00
52935;BME280;38802;50.198;19.796;2024-03-02T08:06:19;95589.69;;;6.73;100.00
52935;BME280;38802;50.198;19.796;2024-03-02T08:08:49;95601.96;;;6.85;100.00
52935;BME280;38802;50.198;19.796;2024-03-02T08:11:18;95602.98;;;6.95;100.00
52935;BME280;38802;50.198;19.796;2024-03-02T08:13:46;95607.86;;;7.01;100.00
52935;BME280;38802;50.198;19.796;2024-03-02T08:16:17;95607.55;;;7.05;100.00
52935;BME280;38802;50.198;19.796;2024-03-02T08:18:49;95604.34;;;7.10;100.00
52935;BME280;38802;50.198;19.796;2024-03-02T08:21:18;95602.86;;;7.18;100.00
52935;BME280;38802;50.198;19.796;2024-03-02T08:23:46;95601.08;;;7.25;100.00
52935;BME280;38802;50.198;19.796;2024-03-02T08:26:14;95594.24;;;7.33;100.00
52935;BME280;38802;50.198;19.796;2024-03-02T08:28:42;95594.98;;;7.42;100.00
52935;BME280;38802;50.198;19.796;2024-03-02T08:31:11;95599.90;;;7.49;100.00
52935;BME280;38802;50.198;19.796;2024-03-02T08:33:39;95602.34;;;7.53;100.00
52935;BME280;38802;50.198;19.796;2024-03-02T08:36:08;95600.33;;;7.54;100.00
52935;BME280;38802;50.198;19.796;2024-03-02T08:38:37;95596.52;;;7.59;100.00
52935;BME280;38802;50.198;19.796;2024-03-02T08:41:06;95602.33;;;7.66;100.00
52935;BME280;38802;50.198;19.796;2024-03-02T08:43:35;95600.23;;;7.73;100.00
52935;BME280;38802;50.198;19.796;2024-03-02T08:46:03;95602.59;;;7.73;100.00
52935;BME280;38802;50.198;19.796;2024-03-02T08:48:31;95604.64;;;7.70;100.00
52935;BME280;38802;50.198;19.796;2024-03-02T08:50:59;95608.40;;;7.66;100.00
52935;BME280;38802;50.198;19.796;2024-03-02T08:53:28;95607.77;;;7.63;100.00
52935;BME280;38802;50.198;19.796;2024-03-02T08:55:56;95610.92;;;7.62;100.00
52935;BME280;38802;50.198;19.796;2024-03-02T08:58:27;95608.64;;;7.63;100.00
52935;BME280;38802;50.198;19.796;2024-03-02T09:00:55;95606.56;;;7.65;100.00
52935;BME280;38802;50.198;19.796;2024-03-02T09:03:23;95611.35;;;7.70;100.00
52935;BME280;38802;50.198;19.796;2024-03-02T09:05:51;95615.05;;;7.75;100.00
52935;BME280;38802;50.198;19.796;2024-03-02T09:08:19;95616.46;;;7.75;100.00
52935;BME280;38802;50.198;19.796;2024-03-02T09:10:47;95617.55;;;7.74;100.00
52935;BME280;38802;50.198;19.796;2024-03-02T09:13:15;95622.20;;;7.75;100.00
52935;BME280;38802;50.198;19.796;2024-03-02T09:15:43;95622.48;;;7.73;100.00
52935;BME280;38802;50.198;19.796;2024-03-02T09:18:12;95620.55;;;7.70;100.00
52935;BME280;38802;50.198;19.796;2024-03-02T09:20:41;95621.13;;;7.71;100.00
52935;BME280;38802;50.198;19.796;2024-03-02T09:23:09;95622.83;;;7.71;100.00
52935;BME280;38802;50.198;19.796;2024-03-02T09:25:37;95625.41;;;7.73;100.00
52935;BME280;38802;50.198;19.796;2024-03-02T09:28:05;95622.78;;;7.76;100.00
52935;BME280;38802;50.198;19.796;2024-03-02T09:30:34;95630.41;;;7.78;100.00
52935;BME280;38802;50.198;19.796;2024-03-02T09:33:03;95632.04;;;7.79;100.00
52935;BME280;38802;50.198;19.796;2024-03-02T09:35:34;95632.95;;;7.83;100.00
52935;BME280;38802;50.198;19.796;2024-03-02T09:38:02;95632.81;;;7.84;100.00
52935;BME280;38802;50.198;19.796;2024-03-02T09:40:31;95636.27;;;7.86;100.00
52935;BME280;38802;50.198;19.796;2024-03-02T09:42:59;95638.22;;;7.91;100.00
52935;BME280;38802;50.198;19.796;2024-03-02T09:45:29;95642.10;;;7.92;100.00
52935;BME280;38802;50.198;19.796;2024-03-02T09:47:57;95647.70;;;7.91;100.00
52935;BME280;38802;50.198;19.796;2024-03-02T09:50:25;95647.26;;;7.90;100.00
52935;BME280;38802;50.198;19.796;2024-03-02T09:52:54;95645.46;;;7.91;100.00
52935;BME280;38802;50.198;19.796;2024-03-02T09:55:22;95649.27;;;7.91;100.00
52935;BME280;38802;50.198;19.796;2024-03-02T09:57:50;95649.10;;;7.89;100.00
52935;BME280;38802;50.198;19.796;2024-03-02T10:00:19;95653.11;;;7.88;100.00
52935;BME280;38802;50.198;19.796;2024-03-02T10:02:47;95654.41;;;7.87;100.00
52935;BME280;38802;50.198;19.796;2024-03-02T10:05:24;95655.45;;;7.87;100.00
52935;BME280;38802;50.198;19.796;2024-03-02T10:08:00;95656.98;;;7.87;100.00
52935;BME280;38802;50.198;19.796;2024-03-02T10:10:39;95658.98;;;7.93;100.00
52935;BME280;38802;50.198;19.796;2024-03-02T10:13:11;95655.94;;;7.94;100.00
52935;BME280;38802;50.198;19.796;2024-03-02T10:15:40;95654.45;;;7.93;100.00
52935;BME280;38802;50.198;19.796;2024-03-02T10:18:10;95655.38;;;7.93;100.00
52935;BME280;38802;50.198;19.796;2024-03-02T10:20:40;95656.91;;;7.93;100.00
52935;BME280;38802;50.198;19.796;2024-03-02T10:23:10;95656.75;;;7.97;100.00
52935;BME280;38802;50.198;19.796;2024-03-02T10:25:39;95655.16;;;7.99;100.00
52935;BME280;38802;50.198;19.796;2024-03-02T10:28:21;95658.09;;;8.03;100.00
52935;BME280;38802;50.198;19.796;2024-03-02T10:30:49;95655.58;;;8.11;100.00
52935;BME280;38802;50.198;19.796;2024-03-02T10:33:19;95654.05;;;8.17;100.00
52935;BME280;38802;50.198;19.796;2024-03-02T10:35:49;95651.39;;;8.17;100.00
52935;BME280;38802;50.198;19.796;2024-03-02T10:38:18;95650.47;;;8.22;100.00
52935;BME280;38802;50.198;19.796;2024-03-02T10:40:47;95648.11;;;8.28;100.00
52935;BME280;38802;50.198;19.796;2024-03-02T10:43:17;95647.42;;;8.30;100.00
52935;BME280;38802;50.198;19.796;2024-03-02T10:45:49;95646.32;;;8.27;100.00
52935;BME280;38802;50.198;19.796;2024-03-02T10:48:19;95644.45;;;8.33;100.00
52935;BME280;38802;50.198;19.796;2024-03-02T10:50:47;95645.23;;;8.38;100.00
52935;BME280;38802;50.198;19.796;2024-03-02T10:53:15;95639.52;;;8.44;100.00
52935;BME280;38802;50.198;19.796;2024-03-02T10:55:43;95632.29;;;8.53;100.00
52935;BME280;38802;50.198;19.796;2024-03-02T10:58:13;95628.79;;;8.59;100.00
52935;BME280;38802;50.198;19.796;2024-03-02T11:00:43;95628.41;;;8.59;100.00
52935;BME280;38802;50.198;19.796;2024-03-02T11:03:14;95630.38;;;8.67;100.00
52935;BME280;38802;50.198;19.796;2024-03-02T11:05:44;95626.82;;;8.70;100.00
52935;BME280;38802;50.198;19.796;2024-03-02T11:08:13;95627.67;;;8.72;100.00
52935;BME280;38802;50.198;19.796;2024-03-02T11:10:50;95627.05;;;8.78;100.00
52935;BME280;38802;50.198;19.796;2024-03-02T11:13:23;95625.54;;;8.81;100.00
52935;BME280;38802;50.198;19.796;2024-03-02T11:15:55;95619.10;;;8.79;100.00
52935;BME280;38802;50.198;19.796;2024-03-02T11:18:27;95615.28;;;8.75;100.00
52935;BME280;38802;50.198;19.796;2024-03-02T11:20:56;95614.13;;;8.81;100.00
52935;BME280;38802;50.198;19.796;2024-03-02T11:23:33;95612.98;;;8.88;100.00
52935;BME280;38802;50.198;19.796;2024-03-02T11:26:22;95608.11;;;8.95;100.00
52935;BME280;38802;50.198;19.796;2024-03-02T11:28:52;95603.52;;;9.01;100.00
52935;BME280;38802;50.198;19.796;2024-03-02T11:31:20;95601.55;;;9.12;100.00
52935;BME280;38802;50.198;19.796;2024-03-02T11:33:48;95599.40;;;9.23;100.00
52935;BME280;38802;50.198;19.796;2024-03-02T11:36:16;95593.52;;;9.33;100.00
52935;BME280;38802;50.198;19.796;2024-03-02T11:38:46;95589.39;;;9.42;100.00
52935;BME280;38802;50.198;19.796;2024-03-02T11:41:15;95592.45;;;9.53;100.00
52935;BME280;38802;50.198;19.796;2024-03-02T11:43:43;95590.71;;;9.63;100.00
52935;BME280;38802;50.198;19.796;2024-03-02T11:46:14;95587.81;;;9.72;100.00
52935;BME280;38802;50.198;19.796;2024-03-02T11:48:43;95585.67;;;9.84;100.00
52935;BME280;38802;50.198;19.796;2024-03-02T11:51:11;95592.21;;;9.94;100.00
52935;BME280;38802;50.198;19.796;2024-03-02T11:53:40;95596.73;;;9.98;100.00
52935;BME280;38802;50.198;19.796;2024-03-02T11:56:11;95598.09;;;9.99;100.00
52935;BME280;38802;50.198;19.796;2024-03-02T11:58:40;95597.34;;;9.97;100.00
52935;BME280;38802;50.198;19.796;2024-03-02T12:01:10;95603.09;;;9.95;100.00
52935;BME280;38802;50.198;19.796;2024-03-02T12:03:38;95598.17;;;9.99;100.00
52935;BME280;38802;50.198;19.796;2024-03-02T12:06:07;95599.52;;;10.04;100.00
52935;BME280;38802;50.198;19.796;2024-03-02T12:08:36;95606.64;;;10.00;100.00
52935;BME280;38802;50.198;19.796;2024-03-02T12:11:04;95606.21;;;9.91;100.00
52935;BME280;38802;50.198;19.796;2024-03-02T12:13:34;95606.60;;;9.83;100.00
52935;BME280;38802;50.198;19.796;2024-03-02T12:16:03;95607.48;;;9.77;100.00
52935;BME280;38802;50.198;19.796;2024-03-02T12:18:31;95603.72;;;9.70;100.00
52935;BME280;38802;50.198;19.796;2024-03-02T12:20:59;95603.61;;;9.68;100.00
52935;BME280;38802;50.198;19.796;2024-03-02T12:23:27;95600.73;;;9.65;100.00
52935;BME280;38802;50.198;19.796;2024-03-02T12:25:55;95603.05;;;9.64;100.00
52935;BME280;38802;50.198;19.796;2024-03-02T12:28:24;95602.67;;;9.67;100.00
52935;BME280;38802;50.198;19.796;2024-03-02T12:30:52;95602.48;;;9.69;100.00
52935;BME280;38802;50.198;19.796;2024-03-02T12:33:21;95603.23;;;9.70;100.00
52935;BME280;38802;50.198;19.796;2024-03-02T12:35:50;95603.55;;;9.70;100.00
52935;BME280;38802;50.198;19.796;2024-03-02T12:38:22;95605.20;;;9.67;100.00
52935;BME280;38802;50.198;19.796;2024-03-02T12:40:57;95603.83;;;9.60;100.00
52935;BME280;38802;50.198;19.796;2024-03-02T12:43:30;95601.77;;;9.55;100.00
52935;BME280;38802;50.198;19.796;2024-03-02T12:45:59;95603.55;;;9.53;100.00
52935;BME280;38802;50.198;19.796;2024-03-02T12:48:27;95606.66;;;9.53;100.00
52935;BME280;38802;50.198;19.796;2024-03-02T12:50:55;95607.90;;;9.53;100.00
52935;BME280;38802;50.198;19.796;2024-03-02T12:53:24;95610.35;;;9.50;100.00
52935;BME280;38802;50.198;19.796;2024-03-02T12:55:52;95613.52;;;9.46;100.00
52935;BME280;38802;50.198;19.796;2024-03-02T12:58:22;95611.39;;;9.44;100.00
52935;BME280;38802;50.198;19.796;2024-03-02T13:00:50;95616.42;;;9.42;100.00
52935;BME280;38802;50.198;19.796;2024-03-02T13:07:13;95604.05;;;9.37;100.00